createdAt,value
2022-07-30T00:02:01.407Z,1.30
2022-07-30T00:04:29.036Z,1.60
2022-07-30T00:06:56.752Z,1.60
2022-07-30T00:09:24.352Z,1.45
2022-07-30T00:11:52.002Z,1.65
2022-07-30T00:14:19.641Z,1.80
2022-07-30T00:16:48.733Z,1.60
2022-07-30T00:19:16.397Z,1.30
2022-07-30T00:21:44.116Z,1.95
2022-07-30T00:24:11.994Z,1.73
2022-07-30T00:26:39.985Z,1.40
2022-07-30T00:29:07.900Z,1.40
2022-07-30T00:31:35.550Z,1.50
2022-07-30T00:34:04.821Z,1.45
2022-07-30T00:36:32.685Z,1.60
2022-07-30T00:39:00.446Z,1.48
2022-07-30T00:41:29.196Z,2.40
2022-07-30T00:43:56.837Z,2.75
2022-07-30T00:46:24.680Z,1.90
2022-07-30T00:48:52.448Z,1.52
2022-07-30T00:51:21.640Z,1.52
2022-07-30T00:53:49.296Z,1.50
2022-07-30T00:56:16.960Z,1.60
2022-07-30T00:58:44.637Z,1.63
2022-07-30T01:01:12.315Z,1.70
2022-07-30T01:03:40.008Z,1.60
2022-07-30T01:06:07.732Z,1.75
2022-07-30T01:08:44.137Z,1.75
2022-07-30T01:11:12.746Z,1.40
2022-07-30T01:13:43.525Z,1.85
2022-07-30T01:16:11.489Z,1.70
2022-07-30T01:18:58.255Z,1.60
2022-07-30T01:21:35.995Z,1.80
2022-07-30T01:24:16.337Z,1.63
2022-07-30T01:26:45.442Z,1.80
2022-07-30T01:29:16.012Z,1.70
2022-07-30T01:31:46.670Z,1.70
2022-07-30T01:34:17.330Z,1.77
2022-07-30T01:36:47.898Z,1.50
2022-07-30T01:39:18.562Z,1.90
2022-07-30T01:41:50.870Z,1.88
2022-07-30T01:44:23.993Z,2.33
2022-07-30T01:46:55.356Z,1.80
2022-07-30T01:49:24.874Z,1.90
2022-07-30T01:51:54.724Z,2.08
2022-07-30T01:54:24.904Z,2.03
2022-07-30T01:56:57.586Z,2.13
2022-07-30T01:59:27.621Z,2.72
2022-07-30T02:01:55.408Z,3.00
2022-07-30T02:04:23.987Z,2.60
2022-07-30T02:07:00.716Z,1.92
2022-07-30T02:09:32.252Z,2.28
2022-07-30T02:12:20.583Z,1.98
2022-07-30T02:14:51.565Z,2.08
2022-07-30T02:17:30.056Z,1.85
2022-07-30T02:20:00.060Z,1.98
2022-07-30T02:22:32.569Z,2.00
2022-07-30T02:25:03.778Z,2.30
2022-07-30T02:27:36.311Z,2.15
2022-07-30T02:30:07.522Z,1.95
2022-07-30T02:32:38.453Z,2.17
2022-07-30T02:35:13.008Z,1.98
2022-07-30T02:37:44.436Z,2.03
2022-07-30T02:40:16.840Z,2.08
2022-07-30T02:42:48.351Z,2.13
2022-07-30T02:45:21.135Z,2.10
2022-07-30T02:47:53.170Z,2.00
2022-07-30T02:50:22.908Z,2.55
2022-07-30T02:52:52.609Z,2.20
2022-07-30T02:55:21.129Z,2.33
2022-07-30T02:57:52.415Z,2.53
2022-07-30T03:00:22.299Z,2.45
2022-07-30T03:02:52.521Z,2.67
2022-07-30T03:07:55.969Z,3.03
2022-07-30T03:10:25.220Z,3.38
2022-07-30T03:12:55.909Z,2.60
2022-07-30T03:15:23.909Z,2.75
2022-07-30T03:17:55.591Z,2.33
2022-07-30T03:20:29.064Z,2.45
2022-07-30T03:22:59.569Z,2.58
2022-07-30T03:25:30.613Z,2.55
2022-07-30T03:28:03.789Z,2.30
2022-07-30T03:30:34.393Z,2.72
2022-07-30T03:33:02.762Z,3.13
2022-07-30T03:35:31.505Z,2.80
2022-07-30T03:38:00.921Z,2.30
2022-07-30T03:40:30.320Z,2.70
2022-07-30T03:42:58.891Z,2.65
2022-07-30T03:45:28.881Z,3.00
2022-07-30T03:48:05.049Z,2.63
2022-07-30T03:50:36.356Z,2.50
2022-07-30T03:53:05.473Z,2.60
2022-07-30T03:55:36.300Z,2.72
2022-07-30T03:58:39.741Z,3.10
2022-07-30T04:01:09.708Z,3.13
2022-07-30T04:03:37.696Z,2.75
2022-07-30T04:06:07.224Z,3.08
2022-07-30T04:08:34.966Z,2.80
2022-07-30T04:11:03.864Z,2.40
2022-07-30T04:13:49.182Z,2.70
2022-07-30T04:16:41.096Z,3.53
2022-07-30T04:19:17.383Z,3.38
2022-07-30T04:21:47.579Z,3.03
2022-07-30T04:24:16.920Z,3.17
2022-07-30T04:26:47.142Z,3.10
2022-07-30T04:29:22.591Z,2.78
2022-07-30T04:31:55.205Z,3.45
2022-07-30T04:34:34.826Z,3.20
2022-07-30T04:37:04.683Z,3.13
2022-07-30T04:39:32.584Z,2.90
2022-07-30T04:42:00.219Z,2.90
2022-07-30T04:44:37.948Z,2.75
2022-07-30T04:47:45.468Z,3.00
2022-07-30T04:50:25.491Z,3.40
2022-07-30T04:52:56.146Z,3.33
2022-07-30T04:55:30.386Z,3.08
2022-07-30T04:58:00.646Z,3.00
2022-07-30T05:00:38.995Z,3.00
2022-07-30T05:03:14.006Z,3.67
2022-07-30T05:05:46.580Z,2.85
2022-07-30T05:08:14.609Z,3.40
2022-07-30T05:10:42.416Z,5.78
2022-07-30T05:13:13.427Z,3.28
2022-07-30T05:15:44.627Z,3.67
2022-07-30T05:18:16.242Z,3.60
2022-07-30T05:20:44.952Z,3.00
2022-07-30T05:23:36.068Z,3.30
2022-07-30T05:26:20.202Z,3.08
2022-07-30T05:28:53.867Z,3.38
2022-07-30T05:31:29.325Z,3.35
2022-07-30T05:34:03.822Z,3.15
2022-07-30T05:36:41.066Z,3.00
2022-07-30T05:39:09.303Z,3.00
2022-07-30T05:41:45.938Z,2.97
2022-07-30T05:44:22.084Z,3.30
2022-07-30T05:46:52.802Z,2.65
2022-07-30T05:49:22.051Z,3.17
2022-07-30T05:51:50.580Z,2.80
2022-07-30T05:54:18.925Z,2.70
2022-07-30T05:57:09.789Z,2.50
2022-07-30T05:59:41.282Z,3.65
2022-07-30T06:02:10.555Z,5.88
2022-07-30T06:05:02.155Z,3.97
2022-07-30T06:07:30.029Z,4.38
2022-07-30T06:10:01.522Z,3.65
2022-07-30T06:12:30.186Z,3.30
2022-07-30T06:14:58.346Z,2.65
2022-07-30T06:17:39.727Z,2.70
2022-07-30T06:20:18.405Z,2.97
2022-07-30T06:22:58.002Z,2.97
2022-07-30T06:25:44.779Z,2.30
2022-07-30T06:28:35.938Z,1.95
2022-07-30T06:31:02.433Z,2.53
2022-07-30T06:33:30.594Z,2.38
2022-07-30T06:35:59.746Z,2.53
2022-07-30T06:38:30.757Z,2.20
2022-07-30T06:41:04.785Z,2.20
2022-07-30T06:43:51.883Z,2.47
2022-07-30T06:46:51.609Z,2.00
2022-07-30T06:49:21.454Z,2.00
2022-07-30T06:51:50.525Z,2.08
2022-07-30T06:54:18.289Z,2.17
2022-07-30T06:57:02.468Z,2.13
2022-07-30T06:59:30.650Z,1.90
2022-07-30T07:04:36.140Z,1.75
2022-07-30T07:07:12.723Z,1.90
2022-07-30T07:09:44.752Z,1.95
2022-07-30T07:12:31.135Z,1.90
2022-07-30T07:14:59.911Z,2.40
2022-07-30T07:17:27.534Z,2.65
2022-07-30T07:19:59.753Z,2.72
2022-07-30T07:22:33.510Z,2.50
2022-07-30T07:25:01.120Z,3.47
2022-07-30T07:27:32.084Z,2.55
2022-07-30T07:30:05.959Z,2.33
2022-07-30T07:32:37.063Z,2.25
2022-07-30T07:35:06.623Z,2.47
2022-07-30T07:37:37.968Z,1.88
2022-07-30T07:40:08.429Z,2.58
2022-07-30T07:42:41.282Z,2.40
2022-07-30T07:45:09.763Z,2.42
2022-07-30T07:48:00.725Z,2.20
2022-07-30T07:50:51.632Z,2.63
2022-07-30T07:53:26.777Z,2.40
2022-07-30T07:55:54.496Z,2.40
2022-07-30T07:58:26.223Z,2.70
2022-07-30T08:00:57.452Z,2.63
2022-07-30T08:03:43.303Z,3.33
2022-07-30T08:06:30.880Z,2.55
2022-07-30T08:09:19.821Z,2.80
2022-07-30T08:12:08.102Z,2.50
2022-07-30T08:15:09.350Z,2.78
2022-07-30T08:17:55.701Z,2.67
2022-07-30T08:20:37.802Z,2.50
2022-07-30T08:23:05.517Z,2.53
2022-07-30T08:25:34.796Z,2.58
2022-07-30T08:28:03.284Z,2.17
2022-07-30T08:30:31.432Z,2.38
2022-07-30T08:32:59.149Z,2.40
2022-07-30T08:35:26.914Z,2.25
2022-07-30T08:37:54.562Z,2.00
2022-07-30T08:40:26.926Z,2.40
2022-07-30T08:43:06.369Z,2.30
2022-07-30T08:45:35.423Z,2.28
2022-07-30T08:48:26.286Z,2.17
2022-07-30T08:50:54.677Z,1.80
2022-07-30T08:53:37.431Z,1.80
2022-07-30T08:56:07.707Z,1.35
2022-07-30T08:58:38.422Z,1.77
2022-07-30T09:01:07.592Z,2.00
2022-07-30T09:03:44.384Z,1.65
2022-07-30T09:06:12.680Z,1.77
2022-07-30T09:08:42.459Z,2.03
2022-07-30T09:11:10.352Z,1.92
2022-07-30T09:13:41.632Z,1.33
2022-07-30T09:16:20.405Z,1.50
2022-07-30T09:18:48.851Z,1.52
2022-07-30T09:21:19.084Z,1.20
2022-07-30T09:23:58.624Z,1.20
2022-07-30T09:26:56.265Z,1.30
2022-07-30T09:29:44.220Z,1.30
2022-07-30T09:32:48.663Z,1.38
2022-07-30T09:35:45.260Z,1.95
2022-07-30T09:38:13.597Z,1.50
2022-07-30T09:41:12.207Z,1.65
2022-07-30T09:43:52.233Z,1.50
2022-07-30T09:46:42.476Z,1.40
2022-07-30T09:49:15.594Z,1.50
2022-07-30T09:51:56.716Z,2.25
2022-07-30T09:54:26.493Z,1.60
2022-07-30T09:57:25.946Z,1.75
2022-07-30T09:59:59.733Z,1.52
2022-07-30T10:02:33.657Z,1.80
2022-07-30T10:05:28.467Z,1.90
2022-07-30T10:07:59.095Z,1.48
2022-07-30T10:10:29.489Z,1.67
2022-07-30T10:13:04.535Z,1.42
2022-07-30T10:15:35.649Z,1.70
2022-07-30T10:18:07.447Z,1.52
2022-07-30T10:20:51.396Z,1.40
2022-07-30T10:23:50.703Z,1.70
2022-07-30T10:26:48.162Z,1.50
2022-07-30T10:29:34.815Z,1.35
2022-07-30T10:32:03.371Z,1.70
2022-07-30T10:34:34.485Z,1.63
2022-07-30T10:37:07.482Z,1.90
2022-07-30T10:39:38.341Z,1.60
2022-07-30T10:42:16.248Z,1.63
2022-07-30T10:45:01.614Z,1.30
2022-07-30T10:47:33.484Z,1.30
2022-07-30T10:50:10.546Z,1.80
2022-07-30T10:52:50.381Z,1.52
2022-07-30T10:55:20.864Z,1.40
2022-07-30T10:58:07.230Z,1.50
2022-07-30T11:00:37.397Z,1.40
2022-07-30T11:03:16.016Z,2.00
2022-07-30T11:05:47.960Z,1.60
2022-07-30T11:08:37.007Z,1.50
2022-07-30T11:11:19.848Z,2.70
2022-07-30T11:13:54.571Z,1.67
2022-07-30T11:16:23.950Z,3.88
2022-07-30T11:22:31.363Z,1.63
2022-07-30T11:25:00.583Z,1.30
2022-07-30T11:27:41.257Z,1.20
2022-07-30T11:30:35.226Z,1.30
2022-07-30T11:33:33.189Z,1.08
2022-07-30T11:36:10.415Z,1.50
2022-07-30T11:39:05.273Z,1.00
2022-07-30T11:41:34.697Z,1.27
2022-07-30T11:44:28.450Z,1.48
2022-07-30T11:46:56.497Z,1.42
2022-07-30T11:49:24.165Z,1.08
2022-07-30T11:51:51.880Z,1.35
2022-07-30T11:54:20.792Z,1.10
2022-07-30T11:56:53.200Z,1.00
2022-07-30T11:59:20.799Z,1.10
2022-07-30T12:01:53.255Z,1.20
2022-07-30T12:04:20.898Z,1.80
2022-07-30T12:06:49.551Z,1.42
2022-07-30T12:09:27.422Z,1.17
2022-07-30T12:11:55.659Z,1.10
2022-07-30T12:14:23.616Z,0.93
2022-07-30T12:16:52.214Z,0.90
2022-07-30T12:19:19.863Z,1.25
2022-07-30T12:21:52.546Z,1.10
2022-07-30T12:24:27.135Z,0.90
2022-07-30T12:27:05.436Z,1.10
2022-07-30T12:29:34.090Z,1.05
2022-07-30T12:32:02.176Z,1.20
2022-07-30T12:34:29.817Z,1.30
2022-07-30T12:37:08.082Z,0.95
2022-07-30T12:39:37.075Z,1.00
2022-07-30T12:42:05.270Z,1.70
2022-07-30T12:44:37.722Z,0.90
2022-07-30T12:47:07.455Z,1.52
2022-07-30T12:49:39.502Z,0.93
2022-07-30T12:52:28.628Z,1.05
2022-07-30T12:55:09.808Z,0.70
2022-07-30T12:57:54.024Z,0.70
2022-07-30T13:00:22.427Z,0.80
2022-07-30T13:02:50.060Z,0.88
2022-07-30T13:05:17.668Z,1.13
2022-07-30T13:07:56.380Z,1.63
2022-07-30T13:10:30.417Z,0.80
2022-07-30T13:12:58.884Z,0.60
2022-07-30T13:15:26.715Z,0.98
2022-07-30T13:17:54.389Z,0.85
2022-07-30T13:20:22.553Z,0.88
2022-07-30T13:22:50.213Z,0.63
2022-07-30T13:25:18.005Z,0.70
2022-07-30T13:27:47.011Z,0.80
2022-07-30T13:30:15.524Z,0.70
2022-07-30T13:32:43.151Z,0.65
2022-07-30T13:35:10.819Z,0.80
2022-07-30T13:37:38.839Z,0.75
2022-07-30T13:40:07.496Z,0.70
2022-07-30T13:42:35.457Z,0.65
2022-07-30T13:45:04.864Z,0.90
2022-07-30T13:47:32.503Z,0.70
2022-07-30T13:50:00.157Z,0.80
2022-07-30T13:52:27.796Z,0.77
2022-07-30T13:54:55.424Z,0.90
2022-07-30T13:57:23.046Z,4.00
2022-07-30T13:59:50.677Z,1.58
2022-07-30T14:02:20.597Z,0.80
2022-07-30T14:04:48.265Z,0.60
2022-07-30T14:07:15.987Z,0.80
2022-07-30T14:09:44.635Z,0.93
2022-07-30T14:12:14.824Z,0.70
2022-07-30T14:14:42.482Z,0.63
2022-07-30T14:17:10.171Z,0.73
2022-07-30T14:19:39.136Z,0.90
2022-07-30T14:22:06.812Z,1.00
2022-07-30T14:24:34.536Z,0.80
2022-07-30T14:27:02.374Z,0.80
2022-07-30T14:29:30.179Z,0.80
2022-07-30T14:31:57.848Z,0.82
2022-07-30T14:34:25.581Z,0.55
2022-07-30T14:36:54.593Z,0.90
2022-07-30T14:39:23.724Z,0.80
2022-07-30T14:41:54.070Z,0.90
2022-07-30T14:44:23.727Z,1.02
2022-07-30T14:46:52.213Z,0.70
2022-07-30T14:49:20.375Z,0.63
2022-07-30T14:51:48.151Z,0.73
2022-07-30T14:54:17.151Z,0.60
2022-07-30T14:56:44.825Z,1.25
2022-07-30T14:59:12.605Z,0.80
2022-07-30T15:01:41.778Z,0.77
2022-07-30T15:04:11.470Z,0.63
2022-07-30T15:06:40.741Z,0.63
2022-07-30T15:09:08.916Z,0.80
2022-07-30T15:12:04.210Z,0.60
2022-07-30T15:14:26.890Z,0.85
2022-07-30T15:16:59.357Z,0.60
2022-07-30T15:19:31.088Z,0.52
2022-07-30T15:21:58.975Z,0.70
2022-07-30T15:24:26.981Z,0.50
2022-07-30T15:26:56.595Z,0.63
2022-07-30T15:29:27.151Z,0.68
2022-07-30T15:31:55.186Z,0.50
2022-07-30T15:34:22.834Z,0.52
2022-07-30T15:36:50.509Z,1.30
2022-07-30T15:39:18.172Z,1.38
2022-07-30T15:41:45.994Z,0.88
2022-07-30T15:44:15.024Z,0.52
2022-07-30T15:46:42.696Z,0.80
2022-07-30T15:49:10.586Z,0.50
2022-07-30T15:51:38.355Z,0.50
2022-07-30T15:54:06.675Z,0.63
2022-07-30T15:56:35.296Z,0.50
2022-07-30T15:59:02.894Z,0.90
2022-07-30T16:01:31.916Z,0.55
2022-07-30T16:03:59.552Z,0.77
2022-07-30T16:06:27.214Z,0.70
2022-07-30T16:08:54.811Z,0.40
2022-07-30T16:11:22.396Z,0.50
2022-07-30T16:13:50.107Z,0.40
2022-07-30T16:16:17.765Z,0.50
2022-07-30T16:18:46.701Z,0.50
2022-07-30T16:21:17.791Z,0.50
2022-07-30T16:23:45.738Z,0.90
2022-07-30T16:26:13.795Z,0.65
2022-07-30T16:28:41.450Z,0.43
2022-07-30T16:31:09.090Z,0.55
2022-07-30T16:33:37.692Z,0.45
2022-07-30T16:36:07.179Z,0.50
2022-07-30T16:38:34.813Z,0.50
2022-07-30T16:41:02.554Z,0.40
2022-07-30T16:43:31.761Z,0.40
2022-07-30T16:45:59.671Z,0.40
2022-07-30T16:48:27.770Z,0.30
2022-07-30T16:50:55.588Z,0.32
2022-07-30T16:53:24.533Z,0.80
2022-07-30T16:55:52.142Z,0.60
2022-07-30T16:58:21.407Z,0.70
2022-07-30T17:00:56.243Z,0.50
2022-07-30T17:03:25.194Z,0.50
2022-07-30T17:05:52.903Z,0.80
2022-07-30T17:08:25.063Z,0.70
2022-07-30T17:13:25.130Z,0.50
2022-07-30T17:15:52.732Z,0.30
2022-07-30T17:18:20.307Z,0.80
2022-07-30T17:20:47.966Z,0.70
2022-07-30T17:23:15.571Z,0.30
2022-07-30T17:25:43.256Z,0.40
2022-07-30T17:28:12.226Z,0.70
2022-07-30T17:30:39.904Z,0.77
2022-07-30T17:33:07.500Z,0.85
2022-07-30T17:35:35.209Z,1.10
2022-07-30T17:38:02.816Z,1.50
2022-07-30T17:40:31.874Z,0.82
2022-07-30T17:43:03.552Z,0.60
2022-07-30T17:45:32.761Z,0.70
2022-07-30T17:48:01.373Z,1.35
2022-07-30T17:50:29.128Z,0.65
2022-07-30T17:52:56.824Z,0.40
2022-07-30T17:55:24.686Z,0.50
2022-07-30T17:57:52.350Z,0.80
2022-07-30T18:00:20.100Z,0.70
2022-07-30T18:02:49.194Z,1.33
2022-07-30T18:05:16.829Z,0.60
2022-07-30T18:07:44.709Z,0.70
2022-07-30T18:10:13.688Z,0.88
2022-07-30T18:12:48.596Z,0.60
2022-07-30T18:15:17.787Z,0.77
2022-07-30T18:17:45.986Z,0.70
2022-07-30T18:20:15.627Z,0.80
2022-07-30T18:22:43.413Z,0.50
2022-07-30T18:25:18.491Z,0.40
2022-07-30T18:27:47.096Z,0.60
2022-07-30T18:30:14.886Z,0.60
2022-07-30T18:32:42.566Z,0.60
2022-07-30T18:35:14.186Z,1.20
2022-07-30T18:37:45.285Z,0.65
2022-07-30T18:40:14.424Z,0.50
2022-07-30T18:42:42.782Z,2.00
2022-07-30T18:45:14.417Z,0.90
2022-07-30T18:47:42.296Z,0.68
2022-07-30T18:50:10.848Z,0.80
2022-07-30T18:52:38.949Z,0.90
2022-07-30T18:55:11.219Z,0.50
2022-07-30T18:57:39.021Z,0.60
2022-07-30T19:00:09.621Z,0.57
2022-07-30T19:02:38.210Z,0.70
2022-07-30T19:05:07.910Z,0.52
2022-07-30T19:07:55.468Z,0.45
2022-07-30T19:10:26.649Z,0.30
2022-07-30T19:12:55.014Z,0.40
2022-07-30T19:15:22.734Z,0.40
2022-07-30T19:17:51.258Z,0.63
2022-07-30T19:20:19.318Z,0.40
2022-07-30T19:22:47.354Z,0.50
2022-07-30T19:25:15.205Z,0.45
2022-07-30T19:27:44.238Z,0.50
2022-07-30T19:30:13.165Z,1.13
2022-07-30T19:32:41.117Z,0.60
2022-07-30T19:35:13.332Z,3.42
2022-07-30T19:37:41.755Z,3.30
2022-07-30T19:40:10.561Z,0.95
2022-07-30T19:42:41.509Z,1.08
2022-07-30T19:45:13.304Z,1.15
2022-07-30T19:47:42.531Z,3.17
2022-07-30T19:50:11.119Z,2.40
2022-07-30T19:52:39.851Z,5.85
2022-07-30T19:55:31.109Z,2.17
2022-07-30T19:57:56.401Z,1.00
2022-07-30T20:00:25.531Z,1.60
2022-07-30T20:02:54.059Z,0.80
2022-07-30T20:05:24.686Z,0.90
2022-07-30T20:07:52.804Z,0.80
2022-07-30T20:10:20.596Z,0.80
2022-07-30T20:12:50.188Z,0.80
2022-07-30T20:15:18.098Z,0.70
2022-07-30T20:17:47.068Z,1.02
2022-07-30T20:20:15.334Z,0.77
2022-07-30T20:22:43.153Z,0.65
2022-07-30T20:25:11.881Z,0.60
2022-07-30T20:27:41.241Z,11.23
2022-07-30T20:30:12.029Z,3.28
2022-07-30T20:32:46.344Z,2.03
2022-07-30T20:35:15.931Z,2.08
2022-07-30T20:37:55.520Z,1.50
2022-07-30T20:40:26.506Z,1.05
2022-07-30T20:42:55.433Z,0.90
2022-07-30T20:45:24.725Z,0.85
2022-07-30T20:47:55.946Z,0.52
2022-07-30T20:50:30.611Z,0.60
2022-07-30T20:52:59.511Z,0.60
2022-07-30T20:55:27.710Z,0.68
2022-07-30T20:58:06.982Z,0.70
2022-07-30T21:00:41.969Z,0.75
2022-07-30T21:03:17.410Z,1.00
2022-07-30T21:05:46.735Z,0.70
2022-07-30T21:08:15.637Z,0.80
2022-07-30T21:10:46.161Z,0.77
2022-07-30T21:13:13.831Z,0.60
2022-07-30T21:15:45.601Z,0.70
2022-07-30T21:18:29.442Z,0.90
2022-07-30T21:21:00.617Z,0.75
2022-07-30T21:23:28.421Z,0.70
2022-07-30T21:26:03.054Z,0.70
2022-07-30T21:28:35.544Z,0.80
2022-07-30T21:31:04.182Z,0.85
2022-07-30T21:33:36.178Z,0.60
2022-07-30T21:36:10.350Z,0.50
2022-07-30T21:38:39.124Z,0.65
2022-07-30T21:41:14.506Z,0.90
2022-07-30T21:43:43.785Z,0.80
2022-07-30T21:46:13.050Z,0.80
2022-07-30T21:48:40.995Z,0.77
2022-07-30T21:51:10.625Z,0.65
2022-07-30T21:56:26.393Z,0.75
2022-07-30T21:58:54.031Z,0.70
2022-07-30T22:01:22.746Z,0.85
2022-07-30T22:04:01.414Z,0.80
2022-07-30T22:06:36.530Z,1.20
2022-07-30T22:09:18.896Z,0.90
2022-07-30T22:11:55.468Z,0.75
2022-07-30T22:14:23.271Z,0.70
2022-07-30T22:16:53.326Z,1.00
2022-07-30T22:19:22.295Z,0.85
2022-07-30T22:21:51.767Z,0.95
2022-07-30T22:24:28.878Z,0.90
2022-07-30T22:26:59.972Z,0.93
2022-07-30T22:29:34.219Z,0.77
2022-07-30T22:32:03.901Z,0.93
2022-07-30T22:34:32.061Z,1.00
2022-07-30T22:37:01.112Z,0.98
2022-07-30T22:39:31.934Z,1.00
2022-07-30T22:42:16.566Z,1.02
2022-07-30T22:44:46.258Z,0.90
2022-07-30T22:47:21.213Z,0.82
2022-07-30T22:50:03.585Z,0.90
2022-07-30T22:52:37.878Z,0.90
2022-07-30T22:55:09.147Z,0.77
2022-07-30T22:57:38.403Z,0.80
2022-07-30T23:00:13.098Z,0.90
2022-07-30T23:05:10.308Z,0.70
2022-07-30T23:07:40.390Z,1.00
2022-07-30T23:10:17.106Z,0.90
2022-07-30T23:12:32.057Z,0.57
2022-07-30T23:12:51.066Z,0.80
2022-07-30T23:15:19.702Z,0.90
2022-07-30T23:17:47.541Z,0.80
2022-07-30T23:20:17.849Z,0.75
2022-07-30T23:22:47.061Z,1.00
2022-07-30T23:25:15.903Z,0.90
2022-07-30T23:27:43.638Z,0.95
2022-07-30T23:30:12.439Z,0.90
2022-07-30T23:32:40.761Z,1.10
2022-07-30T23:35:09.827Z,0.98
2022-07-30T23:37:48.158Z,0.80
2022-07-30T23:40:19.197Z,0.98
2022-07-30T23:42:47.125Z,1.05
2022-07-30T23:45:14.897Z,1.05
2022-07-30T23:47:56.536Z,1.15
2022-07-30T23:50:30.380Z,1.30
2022-07-30T23:52:58.149Z,1.00
2022-07-30T23:55:27.928Z,1.30
2022-07-30T23:57:55.847Z,1.50
